Time;durP1;ratioP1;P1;durP2;ratioP2;P2;SDS_P1;SDS_P2;PMS_P1;PMS_P2;Temp;Humidity;BMP_temperature;BMP_pressure;BME280_temperature;BME280_humidity;BME280_pressure;Samples;Min_cycle;Max_cycle;Signal;HPM_P1;HPM_P2
2021/08/27 00:01:22;;;;;;;4.80;3.90;;;12.90;99.90;;;;;;4976451;28;20439;-83
2021/08/27 00:03:49;;;;;;;5.50;4.00;;;12.80;99.90;;;;;;4976983;28;20544;-84
2021/08/27 00:06:15;;;;;;;6.30;4.60;;;12.70;99.90;;;;;;4977556;28;20463;-84
2021/08/27 00:08:42;;;;;;;6.07;5.47;;;12.70;99.90;;;;;;4977098;28;20449;-85
2021/08/27 00:11:10;;;;;;;5.27;3.73;;;12.70;99.90;;;;;;4977304;28;20445;-84
2021/08/27 00:13:38;;;;;;;4.37;3.97;;;12.70;99.90;;;;;;4976418;28;20559;-84
2021/08/27 00:16:05;;;;;;;6.23;4.23;;;12.80;99.90;;;;;;4977243;28;20496;-84
2021/08/27 00:18:32;;;;;;;4.73;4.23;;;12.80;99.90;;;;;;4977344;28;20452;-84
2021/08/27 00:20:58;;;;;;;6.10;5.47;;;12.90;99.90;;;;;;4977511;28;20480;-83
2021/08/27 00:23:26;;;;;;;5.77;4.70;;;13.00;99.90;;;;;;4977425;28;20484;-84
2021/08/27 00:25:52;;;;;;;5.53;4.73;;;13.10;99.90;;;;;;4980686;28;20500;-83
2021/08/27 00:28:19;;;;;;;4.70;4.30;;;13.20;99.90;;;;;;4980875;28;20472;-85
2021/08/27 00:30:47;;;;;;;4.50;4.10;;;13.30;99.90;;;;;;4980563;28;20501;-85
2021/08/27 00:33:14;;;;;;;5.13;4.60;;;13.40;99.90;;;;;;4999927;23;20843;-81
2021/08/27 00:35:41;;;;;;;3.83;3.53;;;13.40;99.90;;;;;;4945338;29;20453;-82
2021/08/27 00:38:14;;;;;;;4.47;4.07;;;13.30;99.90;;;;;;4945336;29;20461;-82
2021/08/27 00:40:41;;;;;;;5.10;4.40;;;13.20;99.90;;;;;;4945509;29;20449;-81
2021/08/27 00:43:07;;;;;;;5.07;3.63;;;13.20;99.90;;;;;;4944318;29;20475;-82
2021/08/27 00:45:34;;;;;;;4.33;3.80;;;13.30;99.90;;;;;;4944954;29;20464;-81
2021/08/27 00:48:02;;;;;;;5.07;4.53;;;13.20;99.90;;;;;;4944658;29;20449;-82
2021/08/27 00:50:29;;;;;;;5.40;3.83;;;13.20;99.90;;;;;;4945635;29;20454;-82
2021/08/27 00:52:56;;;;;;;9.20;3.80;;;13.20;99.90;;;;;;4945173;29;20504;-81
2021/08/27 00:55:24;;;;;;;3.87;3.57;;;13.20;99.90;;;;;;4945791;29;20453;-82
2021/08/27 00:57:51;;;;;;;5.47;3.40;;;13.20;99.90;;;;;;4946105;29;20458;-81
2021/08/27 01:00:18;;;;;;;4.10;3.80;;;13.20;99.90;;;;;;4945914;29;20537;-82
2021/08/27 01:02:44;;;;;;;6.83;3.40;;;13.20;99.90;;;;;;4945611;29;20480;-82
2021/08/27 01:05:13;;;;;;;5.13;3.70;;;13.20;99.90;;;;;;4945600;29;20468;-82
2021/08/27 01:07:49;;;;;;;4.47;4.07;;;13.30;99.90;;;;;;4946159;29;20457;-82
2021/08/27 01:10:21;;;;;;;4.70;3.20;;;13.30;99.90;;;;;;4946006;29;20453;-82
2021/08/27 01:12:57;;;;;;;4.40;3.87;;;13.30;99.90;;;;;;4946761;29;20572;-82
2021/08/27 01:15:31;;;;;;;5.20;3.77;;;13.40;99.90;;;;;;4946538;29;20464;-82
2021/08/27 01:18:04;;;;;;;5.20;3.70;;;13.40;99.90;;;;;;4946626;29;20547;-81
2021/08/27 01:21:00;;;;;;;3.77;3.10;;;13.50;99.90;;;;;;4945616;29;20462;-81
2021/08/27 01:23:34;;;;;;;6.50;3.33;;;13.50;99.90;;;;;;4945263;29;20480;-82
2021/08/27 01:26:03;;;;;;;6.73;4.17;;;13.70;99.90;;;;;;4946570;29;20457;-81
2021/08/27 01:28:31;;;;;;;4.60;4.20;;;13.70;99.90;;;;;;4943169;29;20984;-81
2021/08/27 01:31:12;;;;;;;3.93;3.57;;;13.70;99.90;;;;;;4943095;29;20506;-82
2021/08/27 01:33:46;;;;;;;5.17;3.57;;;13.70;99.90;;;;;;4943305;29;20500;-82
2021/08/27 01:36:15;;;;;;;5.37;4.60;;;13.70;99.90;;;;;;4943216;29;20482;-81
2021/08/27 01:38:44;;;;;;;5.33;4.00;;;13.70;99.90;;;;;;4943479;29;21128;-82
2021/08/27 01:41:14;;;;;;;3.80;3.30;;;13.70;99.90;;;;;;4943019;29;20837;-82
2021/08/27 01:43:43;;;;;;;4.43;4.03;;;13.60;99.90;;;;;;4942243;29;20466;-81
2021/08/27 01:46:12;;;;;;;5.63;3.33;;;13.60;99.90;;;;;;4943082;29;20465;-82
2021/08/27 01:48:40;;;;;;;6.00;5.43;;;13.60;99.90;;;;;;4942504;29;20458;-82
2021/08/27 01:51:10;;;;;;;5.13;4.60;;;13.60;99.90;;;;;;4943729;29;20476;-82
2021/08/27 01:53:41;;;;;;;4.40;3.97;;;13.60;99.90;;;;;;4943651;29;20490;-82
2021/08/27 01:56:08;;;;;;;4.83;4.23;;;13.60;99.90;;;;;;4942960;29;20438;-81
2021/08/27 01:58:36;;;;;;;6.80;3.67;;;13.70;99.90;;;;;;4944214;29;20552;-81
2021/08/27 02:01:04;;;;;;;7.37;4.50;;;13.60;99.90;;;;;;4943463;29;20460;-82
2021/08/27 02:03:32;;;;;;;4.07;3.73;;;13.70;99.90;;;;;;4943286;29;20873;-81
2021/08/27 02:06:01;;;;;;;4.20;3.80;;;13.70;99.90;;;;;;4944049;29;20454;-82
2021/08/27 02:08:28;;;;;;;7.03;4.10;;;13.70;99.90;;;;;;4944343;29;20457;-81
2021/08/27 02:10:57;;;;;;;9.60;4.37;;;13.70;99.90;;;;;;4943234;29;20468;-82
2021/08/27 02:13:25;;;;;;;5.30;4.40;;;13.70;99.90;;;;;;4942415;29;20516;-82
2021/08/27 02:15:53;;;;;;;5.83;5.50;;;13.80;99.90;;;;;;4943082;29;20539;-81
2021/08/27 02:18:20;;;;;;;5.47;4.43;;;13.80;99.90;;;;;;4944031;29;20496;-81
2021/08/27 02:20:47;;;;;;;5.30;4.50;;;13.80;99.90;;;;;;4943725;29;20461;-81
2021/08/27 02:23:15;;;;;;;5.37;4.87;;;13.80;99.90;;;;;;4941837;29;20469;-82
2021/08/27 02:25:47;;;;;;;8.53;6.23;;;13.70;99.90;;;;;;4943483;29;20525;-82
2021/08/27 02:28:16;;;;;;;8.77;4.83;;;13.80;99.90;;;;;;4942277;29;20960;-81
2021/08/27 02:30:43;;;;;;;4.10;3.70;;;13.80;99.90;;;;;;4942133;29;20454;-82
2021/08/27 02:33:12;;;;;;;5.20;4.80;;;13.90;99.90;;;;;;4941962;29;20499;-81
2021/08/27 02:35:40;;;;;;;4.63;4.23;;;13.90;99.90;;;;;;4942821;29;20529;-81
2021/08/27 02:38:10;;;;;;;6.03;4.47;;;13.80;99.90;;;;;;4944348;29;20465;-82
2021/08/27 02:40:37;;;;;;;4.20;3.90;;;13.80;99.90;;;;;;4945196;29;20445;-82
2021/08/27 02:43:04;;;;;;;7.10;5.53;;;13.80;99.90;;;;;;4944479;29;20470;-82
2021/08/27 02:45:32;;;;;;;6.93;4.60;;;13.80;99.90;;;;;;4944600;29;20456;-82
2021/08/27 02:47:59;;;;;;;5.43;5.00;;;13.90;99.90;;;;;;4944398;29;20466;-82
2021/08/27 02:50:28;;;;;;;6.43;4.40;;;13.80;99.90;;;;;;4944041;29;20470;-82
2021/08/27 02:53:02;;;;;;;5.50;4.77;;;13.80;99.90;;;;;;4943609;29;20489;-82
2021/08/27 02:55:35;;;;;;;5.30;4.80;;;13.80;99.90;;;;;;4944736;29;20495;-82
2021/08/27 02:58:05;;;;;;;4.40;4.00;;;13.70;99.90;;;;;;4943980;29;20460;-82
2021/08/27 03:00:38;;;;;;;5.47;5.07;;;13.80;99.90;;;;;;4943682;29;20435;-82
2021/08/27 03:03:07;;;;;;;7.90;6.80;;;13.80;99.90;;;;;;4942989;29;20474;-81
2021/08/27 03:05:40;;;;;;;7.00;5.60;;;13.70;99.90;;;;;;4944019;29;20486;-82
2021/08/27 03:08:09;;;;;;;6.97;5.80;;;13.70;99.90;;;;;;4946973;29;20444;-82
2021/08/27 03:10:44;;;;;;;6.87;6.13;;;13.70;99.90;;;;;;4950501;29;20814;-81
2021/08/27 03:13:14;;;;;;;9.27;6.77;;;13.80;99.90;;;;;;4945130;29;20488;-82
2021/08/27 03:15:47;;;;;;;7.20;6.53;;;13.80;99.90;;;;;;4944603;29;20525;-81
2021/08/27 03:18:17;;;;;;;7.70;7.10;;;13.70;99.90;;;;;;4944083;29;20460;-81
2021/08/27 03:20:48;;;;;;;7.77;6.97;;;13.80;99.90;;;;;;4943580;29;20518;-82
2021/08/27 03:23:17;;;;;;;6.63;6.03;;;13.90;99.90;;;;;;4942504;29;20470;-81
2021/08/27 03:25:45;;;;;;;8.20;7.27;;;13.80;99.90;;;;;;4943298;29;20460;-82
2021/08/27 03:28:16;;;;;;;11.70;8.07;;;13.80;99.90;;;;;;4942678;29;20454;-82
2021/08/27 03:30:48;;;;;;;9.83;9.03;;;13.80;99.90;;;;;;4942681;29;20450;-82
2021/08/27 03:33:16;;;;;;;11.00;8.73;;;13.70;99.90;;;;;;4941593;29;20501;-82
2021/08/27 03:35:43;;;;;;;9.53;8.63;;;13.60;99.90;;;;;;4941477;29;20956;-82
2021/08/27 03:38:11;;;;;;;10.67;9.60;;;13.50;99.90;;;;;;4942435;29;20543;-82
2021/08/27 03:40:38;;;;;;;10.67;9.77;;;13.50;99.90;;;;;;4942245;29;20468;-82
2021/08/27 03:43:07;;;;;;;10.67;8.73;;;13.40;99.90;;;;;;4941682;29;20496;-82
2021/08/27 03:45:34;;;;;;;10.43;9.30;;;13.50;99.90;;;;;;4942421;29;20481;-82
2021/08/27 03:48:03;;;;;;;10.53;9.43;;;13.40;99.90;;;;;;4942408;29;20466;-82
2021/08/27 03:50:31;;;;;;;15.20;10.87;;;13.40;99.90;;;;;;4942861;29;20532;-82
2021/08/27 03:52:58;;;;;;;13.20;11.90;;;13.30;99.90;;;;;;4941107;29;20489;-82
2021/08/27 03:55:26;;;;;;;11.83;10.60;;;13.30;99.90;;;;;;4942982;29;20973;-82
2021/08/27 03:57:54;;;;;;;13.80;11.70;;;13.30;99.90;;;;;;4943237;29;20455;-82
2021/08/27 04:00:23;;;;;;;13.30;12.10;;;13.30;99.90;;;;;;4946216;29;20454;-82
2021/08/27 04:02:52;;;;;;;14.43;12.90;;;13.30;99.90;;;;;;4945167;29;21010;-82
2021/08/27 04:05:22;;;;;;;13.20;11.90;;;13.20;99.90;;;;;;4945773;29;20461;-82
2021/08/27 04:07:54;;;;;;;13.77;12.37;;;13.20;99.90;;;;;;4946222;29;20485;-82
2021/08/27 04:10:22;;;;;;;11.57;10.37;;;13.20;99.90;;;;;;4929328;29;20477;-82
2021/08/27 04:12:49;;;;;;;11.60;9.67;;;13.20;99.90;;;;;;4944983;29;20478;-82
2021/08/27 04:15:18;;;;;;;11.27;10.17;;;13.20;99.90;;;;;;4946207;29;20462;-82
2021/08/27 04:17:45;;;;;;;9.80;8.90;;;13.10;99.90;;;;;;4946061;29;20530;-82
2021/08/27 04:20:14;;;;;;;9.37;8.47;;;13.20;99.90;;;;;;4945278;29;20469;-82
2021/08/27 04:22:42;;;;;;;9.93;9.03;;;13.20;99.90;;;;;;4945410;29;20556;-82
2021/08/27 04:25:10;;;;;;;11.37;9.27;;;13.20;99.90;;;;;;4945859;29;20457;-82
2021/08/27 04:27:37;;;;;;;8.27;7.13;;;13.10;99.90;;;;;;4945539;29;20461;-82
2021/08/27 04:30:05;;;;;;;8.77;7.90;;;13.10;99.90;;;;;;4944203;29;20461;-82
2021/08/27 04:32:32;;;;;;;9.27;8.27;;;13.20;99.90;;;;;;4944420;29;20489;-82
2021/08/27 04:34:59;;;;;;;7.83;6.60;;;13.10;99.90;;;;;;4946986;29;20505;-81
2021/08/27 04:37:26;;;;;;;8.60;7.40;;;13.10;99.90;;;;;;4945746;29;20462;-82
2021/08/27 04:39:55;;;;;;;7.63;6.80;;;13.00;99.90;;;;;;4946829;29;20521;-82
2021/08/27 04:42:21;;;;;;;7.53;6.83;;;13.10;99.90;;;;;;4944466;29;20851;-82
2021/08/27 04:44:48;;;;;;;11.83;6.73;;;13.00;99.90;;;;;;4946005;29;20453;-81
2021/08/27 04:47:15;;;;;;;7.43;6.70;;;13.00;99.90;;;;;;4945951;29;20460;-81
2021/08/27 04:49:42;;;;;;;8.13;7.53;;;13.00;99.90;;;;;;4944983;29;20461;-82
2021/08/27 04:52:09;;;;;;;7.70;7.00;;;13.00;99.90;;;;;;4945074;29;20865;-82
2021/08/27 04:54:37;;;;;;;7.10;6.40;;;13.00;99.90;;;;;;4945313;29;20489;-81
2021/08/27 04:57:05;;;;;;;9.47;7.47;;;13.00;99.90;;;;;;4944552;29;20497;-81
2021/08/27 04:59:32;;;;;;;10.87;8.53;;;12.90;99.90;;;;;;4944715;29;20471;-81
2021/08/27 05:02:00;;;;;;;10.40;8.70;;;13.00;99.90;;;;;;4944582;29;20461;-81
2021/08/27 05:04:27;;;;;;;9.40;8.43;;;13.00;99.90;;;;;;4945023;29;20476;-82
2021/08/27 05:06:54;;;;;;;12.10;9.03;;;13.00;99.90;;;;;;4945823;29;20449;-82
2021/08/27 05:09:21;;;;;;;15.30;9.87;;;13.10;99.90;;;;;;4944512;29;20462;-82
2021/08/27 05:11:49;;;;;;;11.27;10.03;;;13.10;99.90;;;;;;4944104;29;21028;-82
2021/08/27 05:14:17;;;;;;;14.10;9.13;;;13.20;99.90;;;;;;4944216;29;20580;-81
2021/08/27 05:16:44;;;;;;;11.73;9.70;;;13.20;99.90;;;;;;4944723;29;20480;-82
2021/08/27 05:19:10;;;;;;;14.23;11.37;;;13.30;99.90;;;;;;4944916;29;20465;-82
2021/08/27 05:21:37;;;;;;;11.10;9.90;;;13.20;99.90;;;;;;4944544;29;20457;-82
2021/08/27 05:24:05;;;;;;;12.67;10.97;;;13.30;99.90;;;;;;4944665;29;20465;-82
2021/08/27 05:26:32;;;;;;;13.97;12.27;;;13.30;99.90;;;;;;4945777;29;20534;-82
2021/08/27 05:28:59;;;;;;;17.17;13.50;;;13.30;99.90;;;;;;4945017;29;20466;-81
2021/08/27 05:31:28;;;;;;;15.33;13.77;;;13.30;99.90;;;;;;4944517;29;20453;-82
2021/08/27 05:33:55;;;;;;;15.57;13.93;;;13.30;99.90;;;;;;4944255;29;20494;-81
2021/08/27 05:36:22;;;;;;;17.63;15.10;;;13.30;99.90;;;;;;4944750;29;20454;-82
2021/08/27 05:38:50;;;;;;;16.10;14.13;;;13.40;99.90;;;;;;4944180;29;20458;-82
2021/08/27 05:41:16;;;;;;;13.60;12.20;;;13.40;99.90;;;;;;4944445;29;20480;-82
2021/08/27 05:43:44;;;;;;;14.77;13.27;;;13.40;99.90;;;;;;4943448;29;20465;-82
2021/08/27 05:46:10;;;;;;;14.93;13.00;;;13.40;99.90;;;;;;4943781;29;21024;-83
2021/08/27 05:48:39;;;;;;;16.70;14.00;;;13.40;99.90;;;;;;4944194;29;20569;-83
2021/08/27 05:51:05;;;;;;;14.27;12.83;;;13.40;99.90;;;;;;4944878;29;20461;-83
2021/08/27 05:53:32;;;;;;;15.30;12.63;;;13.50;99.90;;;;;;4942793;29;20548;-82
2021/08/27 05:55:59;;;;;;;15.50;12.37;;;13.60;99.90;;;;;;4944135;29;20462;-82
2021/08/27 05:58:26;;;;;;;12.93;11.70;;;13.70;99.90;;;;;;4943615;29;20525;-82
2021/08/27 06:00:53;;;;;;;13.33;11.40;;;13.70;99.90;;;;;;4943585;29;20462;-83
2021/08/27 06:03:20;;;;;;;11.63;10.47;;;13.70;99.90;;;;;;4943844;29;20555;-83
2021/08/27 06:05:48;;;;;;;11.10;10.00;;;13.80;99.90;;;;;;4944642;29;20453;-83
2021/08/27 06:08:15;;;;;;;12.60;10.60;;;13.80;99.90;;;;;;4944428;29;20461;-84
2021/08/27 06:10:42;;;;;;;12.67;9.80;;;13.90;99.90;;;;;;4944559;29;20492;-84
2021/08/27 06:13:09;;;;;;;9.60;8.80;;;13.90;99.90;;;;;;4943242;29;20473;-83
2021/08/27 06:15:36;;;;;;;9.60;8.90;;;13.90;99.90;;;;;;4943440;29;20498;-83
2021/08/27 06:18:03;;;;;;;10.87;9.50;;;13.90;99.90;;;;;;4943934;29;20454;-83
2021/08/27 06:20:32;;;;;;;9.77;8.87;;;14.00;99.90;;;;;;4944322;29;20446;-83
2021/08/27 06:23:00;;;;;;;11.73;8.63;;;14.10;99.90;;;;;;4943387;29;20481;-83
2021/08/27 06:25:28;;;;;;;8.97;6.80;;;14.20;99.90;;;;;;4944271;29;20814;-83
2021/08/27 06:27:55;;;;;;;8.70;7.80;;;14.20;99.90;;;;;;4944612;29;20452;-82
2021/08/27 06:30:21;;;;;;;8.40;7.60;;;14.20;99.90;;;;;;4944066;29;20454;-84
2021/08/27 06:32:48;;;;;;;8.73;7.50;;;14.10;99.90;;;;;;4970518;23;20806;-86
2021/08/27 06:35:15;;;;;;;7.90;6.43;;;14.20;99.90;;;;;;4963792;29;20489;-87
2021/08/27 06:40:27;;;;;;;9.10;7.37;;;14.30;99.90;;;;;;4964672;29;20469;-86
2021/08/27 06:42:54;;;;;;;6.70;5.97;;;14.40;99.90;;;;;;4964215;29;20479;-85
2021/08/27 06:45:21;;;;;;;8.30;6.97;;;14.30;99.90;;;;;;4963619;29;20468;-86
2021/08/27 06:47:48;;;;;;;6.10;5.60;;;14.20;99.90;;;;;;4963737;28;20448;-85
2021/08/27 06:50:14;;;;;;;6.47;5.87;;;14.10;99.90;;;;;;4964586;29;20483;-86
2021/08/27 06:52:41;;;;;;;7.93;6.60;;;14.20;99.90;;;;;;4963906;28;21015;-86
2021/08/27 06:55:09;;;;;;;7.23;6.00;;;14.30;99.90;;;;;;4964143;28;20496;-86
2021/08/27 06:57:37;;;;;;;5.67;5.17;;;14.20;99.90;;;;;;4964271;28;20485;-85
2021/08/27 07:00:05;;;;;;;7.60;6.00;;;14.30;99.90;;;;;;4964265;29;20465;-85
2021/08/27 07:02:32;;;;;;;6.00;5.50;;;14.30;99.90;;;;;;4965237;28;20440;-86
2021/08/27 07:04:59;;;;;;;7.50;5.03;;;14.40;99.90;;;;;;4963767;28;20470;-87
2021/08/27 07:07:26;;;;;;;6.30;5.50;;;14.30;99.90;;;;;;4966197;28;20492;-86
2021/08/27 07:09:53;;;;;;;6.40;5.80;;;14.30;99.90;;;;;;4964770;29;20465;-86
2021/08/27 07:12:21;;;;;;;6.87;6.20;;;14.40;99.90;;;;;;4964225;29;20454;-86
2021/08/27 07:14:50;;;;;;;6.37;5.30;;;14.40;99.90;;;;;;4964373;29;20481;-86
2021/08/27 07:17:18;;;;;;;7.03;6.37;;;14.50;99.90;;;;;;4963961;29;20944;-86
2021/08/27 07:19:45;;;;;;;11.33;5.83;;;14.50;99.90;;;;;;4964736;29;20528;-84
2021/08/27 07:22:12;;;;;;;5.23;4.80;;;14.60;99.90;;;;;;4967421;29;20452;-83
2021/08/27 07:24:39;;;;;;;5.60;5.20;;;14.70;99.90;;;;;;4967298;29;20494;-85
2021/08/27 07:27:08;;;;;;;4.47;4.17;;;14.80;99.90;;;;;;4968313;28;20450;-85
2021/08/27 07:29:34;;;;;;;5.07;4.23;;;15.00;99.90;;;;;;4968042;28;20454;-84
2021/08/27 07:32:03;;;;;;;4.10;3.60;;;15.10;99.90;;;;;;4967447;28;20462;-86
2021/08/27 07:34:29;;;;;;;5.90;4.60;;;15.20;99.90;;;;;;4968771;29;20488;-86
2021/08/27 07:36:58;;;;;;;3.80;3.50;;;15.40;99.90;;;;;;4970463;29;20462;-86
2021/08/27 07:39:24;;;;;;;4.10;3.80;;;15.50;99.90;;;;;;4969791;29;20529;-86
2021/08/27 07:41:51;;;;;;;3.57;3.27;;;15.60;99.90;;;;;;4968751;29;20456;-86
2021/08/27 07:44:18;;;;;;;3.80;3.50;;;15.70;99.90;;;;;;4971456;29;20465;-86
2021/08/27 07:46:45;;;;;;;4.20;3.90;;;15.60;99.90;;;;;;4977310;29;20449;-85
2021/08/27 07:49:13;;;;;;;3.80;3.50;;;15.30;99.90;;;;;;4979956;29;20452;-85
2021/08/27 07:51:40;;;;;;;3.77;3.47;;;15.20;99.90;;;;;;4980345;29;20464;-84
2021/08/27 07:54:06;;;;;;;3.70;3.40;;;14.80;99.90;;;;;;4980489;29;20516;-84
2021/08/27 07:56:33;;;;;;;5.60;3.60;;;14.70;99.90;;;;;;4980397;28;20459;-83
2021/08/27 07:59:00;;;;;;;3.67;3.47;;;14.60;99.90;;;;;;4980205;28;20455;-83
2021/08/27 08:01:26;;;;;;;3.13;2.90;;;14.50;99.90;;;;;;4972560;29;20444;-83
2021/08/27 08:03:53;;;;;;;2.40;2.20;;;14.70;99.90;;;;;;4964648;29;20455;-83
2021/08/27 08:06:21;;;;;;;8.90;2.20;;;14.70;99.90;;;;;;4967191;28;20485;-83
2021/08/27 08:08:48;;;;;;;2.60;2.40;;;14.80;99.90;;;;;;4965773;28;20430;-83
2021/08/27 08:11:15;;;;;;;1.80;1.70;;;14.90;99.90;;;;;;4965354;29;20512;-85
2021/08/27 08:13:41;;;;;;;1.93;1.83;;;14.80;99.90;;;;;;4971136;28;20479;-84
2021/08/27 08:16:08;;;;;;;2.97;2.20;;;14.90;99.90;;;;;;4972401;29;20552;-82
2021/08/27 08:18:36;;;;;;;6.57;2.03;;;15.10;99.90;;;;;;4969177;28;20531;-84
2021/08/27 08:21:03;;;;;;;1.87;1.77;;;15.30;99.90;;;;;;4960712;29;20460;-84
2021/08/27 08:23:32;;;;;;;4.33;2.20;;;15.40;99.90;;;;;;4964290;29;20461;-85
2021/08/27 08:25:59;;;;;;;3.10;1.70;;;15.50;99.90;;;;;;4971733;28;20453;-85
2021/08/27 08:28:26;;;;;;;1.80;1.70;;;15.60;99.90;;;;;;4959620;29;20456;-83
2021/08/27 08:30:53;;;;;;;2.10;1.97;;;15.60;99.90;;;;;;4962424;29;20437;-83
2021/08/27 08:33:20;;;;;;;2.40;2.20;;;15.60;99.90;;;;;;4970479;29;20492;-83
2021/08/27 08:35:47;;;;;;;2.33;1.63;;;15.80;99.90;;;;;;4978211;28;20496;-84
2021/08/27 08:38:14;;;;;;;1.70;1.60;;;16.00;99.90;;;;;;4975289;29;20452;-84
2021/08/27 08:40:43;;;;;;;2.97;1.50;;;16.20;99.90;;;;;;4974898;29;20960;-84
2021/08/27 08:43:12;;;;;;;1.40;1.40;;;16.40;99.90;;;;;;4974141;29;20473;-83
2021/08/27 08:45:44;;;;;;;1.90;1.40;;;16.50;99.90;;;;;;4968662;28;20581;-85
2021/08/27 08:48:14;;;;;;;1.53;1.43;;;16.60;99.90;;;;;;4969924;29;20453;-84
2021/08/27 08:50:41;;;;;;;2.53;2.00;;;16.60;99.90;;;;;;4968997;28;20458;-85
2021/08/27 08:53:12;;;;;;;3.77;1.93;;;16.50;99.90;;;;;;4976167;29;20493;-83
2021/08/27 08:55:40;;;;;;;2.60;1.53;;;16.50;99.90;;;;;;4977889;29;20481;-85
2021/08/27 08:58:08;;;;;;;1.80;1.70;;;16.50;99.80;;;;;;4976068;28;20460;-82
2021/08/27 09:00:37;;;;;;;1.73;1.50;;;16.40;99.70;;;;;;4977071;29;20467;-83
2021/08/27 09:03:05;;;;;;;1.63;1.53;;;16.40;99.00;;;;;;4977685;29;20529;-83
2021/08/27 09:19:52;;;;;;;1.80;1.70;;;16.50;99.40;;;;;;4810012;29;20447;-85
2021/08/27 09:22:46;;;;;;;2.00;1.90;;;16.50;99.20;;;;;;4789867;29;20529;-81
2021/08/27 09:25:44;;;;;;;1.70;1.47;;;16.60;99.40;;;;;;4848852;29;20514;-80
2021/08/27 09:31:28;;;;;;;2.43;2.23;;;16.70;99.50;;;;;;4896902;29;20539;-80
2021/08/27 09:34:59;;;;;;;;;;;;;;;;;;;;;
2021/08/27 09:38:19;;;;;;;2.80;1.90;;;16.80;99.50;;;;;;4839243;29;20455;-86
2021/08/27 09:41:12;;;;;;;1.47;1.37;;;16.80;99.60;;;;;;4926006;28;20840;-82
2021/08/27 10:14:31;;;;;;;3.03;2.27;;;16.50;99.30;;;;;;4753366;30;20472;-83
2021/08/27 10:24:12;;;;;;;3.30;3.07;;;16.20;99.90;;;;;;4761505;29;20535;-84
2021/08/27 12:13:55;;;;;;;;;;;;;;;;;;;;;
2021/08/27 12:32:43;;;;;;;10.50;3.30;;;19.90;91.70;;;;;;4927693;29;20442;-84
2021/08/27 15:33:40;;;;;;;;;;;;;;;;;;;;;
2021/08/27 17:21:05;;;;;;;2.77;2.57;;;17.50;93.30;;;;;;4835859;29;20547;-83
2021/08/27 17:24:22;;;;;;;;;;;;;;;;;;;;;
2021/08/27 17:53:10;;;;;;;;;;;;;;;;;;;;;
2021/08/27 18:02:45;;;;;;;2.87;2.60;;;16.40;97.30;;;;;;4854161;29;20839;-84
2021/08/27 18:22:40;;;;;;;;;;;;;;;;;;;;;
2021/08/27 18:25:52;;;;;;;2.80;2.60;;;16.30;98.50;;;;;;4798106;29;20540;-83
2021/08/27 18:28:59;;;;;;;4.57;3.00;;;16.20;98.90;;;;;;4884585;29;20464;-84
2021/08/27 18:34:39;;;;;;;4.70;3.77;;;15.90;99.90;;;;;;4980050;23;20506;-83
2021/08/27 18:37:06;;;;;;;5.40;3.83;;;15.80;99.90;;;;;;4972856;29;20491;-82
2021/08/27 18:39:33;;;;;;;3.53;3.30;;;15.60;99.90;;;;;;4973568;29;20454;-83
2021/08/27 18:42:01;;;;;;;4.50;3.10;;;15.50;99.90;;;;;;4972834;29;20453;-83
2021/08/27 18:44:28;;;;;;;4.00;3.60;;;15.50;99.90;;;;;;4973542;29;20532;-83
2021/08/27 18:46:54;;;;;;;4.10;3.70;;;15.40;99.90;;;;;;4973427;29;20449;-83
2021/08/27 18:49:21;;;;;;;3.90;3.60;;;15.30;99.90;;;;;;4972979;29;20454;-83
2021/08/27 18:51:48;;;;;;;4.00;3.50;;;15.30;99.90;;;;;;4972942;28;20453;-83
2021/08/27 18:54:15;;;;;;;3.73;3.03;;;15.20;99.90;;;;;;4972554;29;20478;-82
2021/08/27 18:56:42;;;;;;;2.97;2.77;;;15.30;99.90;;;;;;4973006;28;20479;-83
2021/08/27 18:59:11;;;;;;;4.17;3.83;;;15.30;99.90;;;;;;4973004;29;20459;-83
2021/08/27 19:01:41;;;;;;;4.10;3.53;;;15.30;99.90;;;;;;4971230;29;20455;-83
2021/08/27 19:04:08;;;;;;;3.90;3.33;;;15.30;99.90;;;;;;4974123;29;20471;-83
2021/08/27 19:06:35;;;;;;;3.67;3.37;;;15.30;99.90;;;;;;4973692;29;20469;-83
2021/08/27 19:09:02;;;;;;;3.70;3.40;;;15.30;99.90;;;;;;4971417;29;20452;-83
2021/08/27 19:11:28;;;;;;;4.60;4.00;;;15.30;99.90;;;;;;4971583;29;20455;-82
2021/08/27 19:13:55;;;;;;;3.10;2.80;;;15.20;99.90;;;;;;4972882;29;20471;-83
2021/08/27 19:16:23;;;;;;;3.63;3.33;;;15.30;99.90;;;;;;4971628;29;20485;-83
2021/08/27 19:18:50;;;;;;;4.10;3.40;;;15.20;99.90;;;;;;4972236;28;20456;-83
2021/08/27 19:21:17;;;;;;;3.93;2.90;;;15.10;99.90;;;;;;4972645;29;20459;-83
2021/08/27 19:23:44;;;;;;;3.80;3.50;;;15.20;99.90;;;;;;4972261;29;20469;-84
2021/08/27 19:26:11;;;;;;;3.30;3.00;;;15.20;99.90;;;;;;4972710;29;20453;-84
2021/08/27 19:28:39;;;;;;;4.07;3.20;;;15.10;99.90;;;;;;4973799;28;20480;-84
2021/08/27 19:31:06;;;;;;;4.30;3.90;;;15.10;99.90;;;;;;4978555;29;20449;-83
2021/08/27 19:33:34;;;;;;;3.23;2.93;;;15.10;99.90;;;;;;4975758;28;20484;-83
2021/08/27 19:36:01;;;;;;;4.73;4.33;;;15.10;99.90;;;;;;4975396;28;20445;-83
2021/08/27 19:38:28;;;;;;;4.27;3.97;;;15.10;99.90;;;;;;4974424;28;20454;-84
2021/08/27 19:40:55;;;;;;;3.90;3.60;;;15.10;99.90;;;;;;4973257;28;20459;-83
2021/08/27 19:43:22;;;;;;;3.93;3.60;;;15.10;99.90;;;;;;4972982;29;20473;-83
2021/08/27 19:45:49;;;;;;;4.43;3.90;;;15.00;99.90;;;;;;4973452;28;20450;-83
2021/08/27 19:48:16;;;;;;;4.43;3.83;;;15.00;99.90;;;;;;4970341;29;20448;-84
2021/08/27 19:50:44;;;;;;;4.23;3.73;;;14.90;99.90;;;;;;4969109;28;20465;-84
2021/08/27 19:53:10;;;;;;;4.47;3.93;;;14.80;99.90;;;;;;4970203;28;20477;-84
2021/08/27 19:55:37;;;;;;;5.03;3.50;;;14.80;99.90;;;;;;4969946;28;20463;-83
2021/08/27 19:58:04;;;;;;;4.10;3.80;;;14.70;99.90;;;;;;4969757;29;20500;-84
2021/08/27 20:00:31;;;;;;;4.00;3.20;;;14.70;99.90;;;;;;4972296;28;20450;-84
2021/08/27 20:02:57;;;;;;;4.30;3.90;;;14.60;99.90;;;;;;4970732;29;20448;-84
2021/08/27 20:05:24;;;;;;;4.90;4.00;;;14.60;99.90;;;;;;4974144;28;20969;-84
2021/08/27 20:07:52;;;;;;;6.03;4.20;;;14.60;99.90;;;;;;4970172;28;20460;-85
2021/08/27 20:10:19;;;;;;;5.23;3.70;;;14.50;99.90;;;;;;4963142;28;20453;-86
2021/08/27 20:13:51;;;;;;;3.80;3.40;;;14.30;99.90;;;;;;4959191;29;20457;-87
2021/08/27 20:16:24;;;;;;;3.90;3.50;;;14.20;99.90;;;;;;4956854;28;20492;-87
2021/08/27 20:18:51;;;;;;;4.47;4.07;;;14.20;99.90;;;;;;4960688;28;20460;-87
2021/08/27 20:21:19;;;;;;;3.80;3.47;;;14.20;99.90;;;;;;4960158;28;20456;-88
2021/08/27 20:23:53;;;;;;;5.03;4.37;;;14.20;99.90;;;;;;4960039;28;20893;-88
2021/08/27 20:29:36;;;;;;;4.80;4.37;;;14.10;99.90;;;;;;4902025;28;20537;-87
2021/08/27 20:32:04;;;;;;;5.13;4.63;;;14.20;99.90;;;;;;4960123;28;20465;-87
2021/08/27 20:34:30;;;;;;;5.17;4.67;;;14.30;99.90;;;;;;4959680;28;20563;-86
2021/08/27 20:41:03;;;;;;;5.60;4.47;;;14.30;99.90;;;;;;4822249;29;20662;-87
2021/08/27 20:43:33;;;;;;;5.17;4.23;;;14.40;99.90;;;;;;4842062;29;20506;-86
2021/08/27 20:46:00;;;;;;;4.60;3.90;;;14.40;99.90;;;;;;4937676;29;20500;-86
2021/08/27 20:48:27;;;;;;;5.80;5.30;;;14.40;99.90;;;;;;4936501;29;20455;-86
2021/08/27 20:50:55;;;;;;;6.77;4.70;;;14.40;99.90;;;;;;4937341;29;20461;-87
2021/08/27 20:53:22;;;;;;;5.27;4.80;;;14.50;99.90;;;;;;4936478;29;20474;-86
2021/08/27 20:55:51;;;;;;;5.03;4.47;;;14.50;99.90;;;;;;4937367;29;20491;-87
2021/08/27 20:58:19;;;;;;;6.03;5.43;;;14.50;99.90;;;;;;4937119;29;20508;-87
2021/08/27 21:00:47;;;;;;;4.73;4.17;;;14.50;99.90;;;;;;4937343;29;20465;-87
2021/08/27 21:03:19;;;;;;;6.60;4.57;;;14.50;99.90;;;;;;4937311;29;20477;-85
2021/08/27 21:05:46;;;;;;;5.00;4.60;;;14.50;99.90;;;;;;4937203;29;21025;-88
2021/08/27 21:08:12;;;;;;;5.77;5.27;;;14.50;99.90;;;;;;4937214;29;20456;-86
2021/08/27 21:10:51;;;;;;;5.83;5.23;;;14.50;99.90;;;;;;4937605;29;20555;-86
2021/08/27 21:13:24;;;;;;;8.33;4.90;;;14.50;99.90;;;;;;4936827;29;21045;-86
2021/08/27 21:15:51;;;;;;;5.83;4.50;;;14.50;99.90;;;;;;4937292;29;20431;-86
2021/08/27 21:18:21;;;;;;;5.20;4.80;;;14.60;99.90;;;;;;4937449;29;20502;-87
2021/08/27 21:20:53;;;;;;;6.50;4.30;;;14.50;99.90;;;;;;4937403;29;20895;-86
2021/08/27 21:23:24;;;;;;;5.87;5.30;;;14.50;99.90;;;;;;4936342;29;21022;-88
2021/08/27 21:25:51;;;;;;;5.10;4.60;;;14.40;99.90;;;;;;4937182;29;20456;-86
2021/08/27 21:28:18;;;;;;;5.57;5.17;;;14.50;99.90;;;;;;4936987;29;20447;-86
2021/08/27 21:30:53;;;;;;;5.10;4.10;;;14.50;99.90;;;;;;4936910;29;20457;-87
2021/08/27 21:33:29;;;;;;;6.00;4.90;;;14.50;99.90;;;;;;4935704;29;20490;-86
2021/08/27 21:35:58;;;;;;;6.03;4.70;;;14.60;99.90;;;;;;4936712;29;20541;-88
2021/08/27 21:38:28;;;;;;;4.80;4.40;;;14.60;99.90;;;;;;4936579;29;20486;-85
2021/08/27 21:41:02;;;;;;;4.43;4.00;;;14.60;99.90;;;;;;4936911;29;20874;-86
2021/08/27 21:43:29;;;;;;;4.70;4.30;;;14.70;99.90;;;;;;4936013;29;20484;-86
2021/08/27 21:45:57;;;;;;;4.97;4.53;;;14.70;99.90;;;;;;4939455;29;20466;-85
2021/08/27 21:48:27;;;;;;;5.33;5.00;;;14.70;99.90;;;;;;4941802;29;20458;-85